Weather History for Audubon, IA

Change the Weather History Date:

Sunday, November 3, 2013

  Actual Average Record
Temperature  
Mean Temperature 42 °F -  
Max Temperature 55 °F 51 °F 78 °F (1978)
Min Temperature 30 °F 33 °F 6 °F (1991)
Degree Days  
Heating Degree Days 22    
Moisture  
Dew Point 30 °F    
Average Humidity 57    
Maximum Humidity 86    
Minimum Humidity 29    
Precipitation  
Precipitation 0.00 in - - ()
Sea Level Pressure  
Sea Level Pressure 29.96 in    
Wind  
Wind Speed 8 mph (SSE)    
Max Wind Speed 26 mph    
Max Gust Speed 37 mph    
Visibility 10 miles    
Events      
Averages and records for this station are not official NWS values.
T = Trace of Precipitation, MM = Missing Value Source: NWS Daily Summary

Daily Weather History Graph

Daily Weather History Graph

Search for Another Location

Airport:

Trip Planner

Search our weather history database for the weather conditions in past years. The results will help you decide how hot, cold, wet, or windy it might be!

Date:

Astronomy

Nov. 03, 2013 Rise Set
Actual Time 6:54 AM CST 5:11 PM CST
Civil Twilight 6:25 AM CST 5:40 PM CST
Nautical Twilight 5:52 AM CST 6:13 PM CST
Astronomical Twilight 5:20 AM CST 6:45 PM CST
Moon 6:59 AM CST (11/3) 5:26 PM CST (11/3)
Length of Visible Light 11h 14m
Length of Day
10h 16m
New Moon, 0% of the Moon is Illuminated
Nov 3
New Moon
Nov 9
First Quarter
Nov 17
Full
Nov 25
Last Quarter
Dec 2
New

Hourly Weather History & Observations

Time (CST) Temp. Windchill Dew Point Humidity Pressure Visibility Wind Dir Wind Speed Gust Speed Precip Events Conditions
12:15 AM 30.2 °F - 24.8 °F 80% 30.10 in 10.0 mi Calm Calm - N/A   Clear
12:35 AM 30.2 °F - 24.8 °F 80% 30.10 in 10.0 mi Calm Calm - N/A   Clear
12:55 AM 33.8 °F - 26.6 °F 75% 30.10 in 10.0 mi Calm Calm - N/A   Clear
1:15 AM 33.8 °F - 28.4 °F 81% 30.11 in 10.0 mi Calm Calm - N/A   Clear
1:35 AM 33.8 °F - 28.4 °F 81% 30.11 in 10.0 mi Calm Calm - N/A   Clear
1:55 AM 33.8 °F 30.8 °F 28.4 °F 81% 30.11 in 10.0 mi SSE 3.5 mph - N/A   Clear
1:15 AM 33.8 °F - 28.4 °F 81% 30.11 in 10.0 mi Calm Calm - N/A   Clear
1:35 AM 32.0 °F - 26.6 °F 80% 30.11 in 10.0 mi Calm Calm - N/A   Clear
1:55 AM 30.2 °F 26.7 °F 26.6 °F 86% 30.11 in 10.0 mi SSE 3.5 mph - N/A   Clear
2:15 AM 33.8 °F - 26.6 °F 75% 30.10 in 10.0 mi Calm Calm - N/A   Clear
2:35 AM 33.8 °F - 28.4 °F 81% 30.09 in 10.0 mi Calm Calm - N/A   Clear
2:55 AM 33.8 °F - 28.4 °F 81% 30.09 in 10.0 mi Calm Calm - N/A   Clear
3:15 AM 32.0 °F - 26.6 °F 80% 30.09 in 10.0 mi Calm Calm - N/A   Clear
3:35 AM 33.8 °F - 26.6 °F 75% 30.08 in 10.0 mi Calm Calm - N/A   Clear
3:55 AM 35.6 °F - 28.4 °F 75% 30.08 in 10.0 mi Calm Calm - N/A   Clear
4:15 AM 33.8 °F - 28.4 °F 81% 30.08 in 10.0 mi Calm Calm - N/A   Clear
4:35 AM 35.6 °F 31.7 °F 28.4 °F 75% 30.08 in 10.0 mi SSE 4.6 mph - N/A   Clear
4:55 AM 37.4 °F 32.8 °F 30.2 °F 75% 30.08 in 10.0 mi South 5.8 mph - N/A   Clear
5:15 AM 37.4 °F 32.1 °F 30.2 °F 75% 30.07 in 10.0 mi South 6.9 mph - N/A   Clear
5:35 AM 37.4 °F 32.8 °F 30.2 °F 75% 30.07 in 10.0 mi South 5.8 mph - N/A   Clear
5:55 AM 37.4 °F 33.8 °F 30.2 °F 75% 30.06 in 10.0 mi SSE 4.6 mph - N/A   Clear
6:15 AM 37.4 °F 32.8 °F 30.2 °F 75% 30.05 in 10.0 mi SSE 5.8 mph - N/A   Clear
6:35 AM 37.4 °F 32.1 °F 30.2 °F 75% 30.05 in 10.0 mi SSE 6.9 mph - N/A   Clear
6:55 AM 37.4 °F 32.8 °F 30.2 °F 75% 30.05 in 10.0 mi SSE 5.8 mph - N/A   Clear
7:15 AM 37.4 °F 32.1 °F 30.2 °F 75% 30.04 in 10.0 mi SSE 6.9 mph - N/A   Clear
7:35 AM 37.4 °F 33.8 °F 30.2 °F 75% 30.05 in 10.0 mi SSE 4.6 mph - N/A   Clear
7:55 AM 39.2 °F 32.0 °F 33.8 °F 81% 30.05 in 10.0 mi South 11.5 mph 16.1 mph N/A   Clear
8:15 AM 42.8 °F 37.0 °F 33.8 °F 70% 30.04 in 10.0 mi SSE 10.4 mph 16.1 mph N/A   Clear
8:35 AM 44.6 °F 38.8 °F 33.8 °F 66% 30.04 in 10.0 mi SSE 11.5 mph 19.6 mph N/A   Clear
8:55 AM 46.4 °F 40.7 °F 33.8 °F 62% 30.03 in 10.0 mi SSE 12.7 mph 21.9 mph N/A   Clear
9:15 AM 48.2 °F - 33.8 °F 58% 30.03 in 10.0 mi SSE 17.3 mph 24.2 mph N/A   Clear
9:35 AM 50.0 °F - 32.0 °F 50% 30.01 in 10.0 mi SSE 17.3 mph 27.6 mph N/A   Clear
9:55 AM 51.8 °F - 30.2 °F 44% 30.01 in 10.0 mi SSE 21.9 mph 35.7 mph N/A   Clear
10:15 AM 51.8 °F - 30.2 °F 44% 30.00 in 10.0 mi SSE 18.4 mph 34.5 mph N/A   Clear
10:35 AM 53.6 °F - 26.6 °F 35% 29.99 in 10.0 mi SSE 23.0 mph 33.4 mph N/A   Clear
10:55 AM 53.6 °F - 26.6 °F 35% 29.98 in 10.0 mi South 25.3 mph 31.1 mph N/A   Clear
11:15 AM 55.4 °F - 23.0 °F 29% 29.97 in 10.0 mi SSE 26.5 mph 36.8 mph N/A   Clear
11:35 AM 53.6 °F - 24.8 °F 33% 29.95 in 10.0 mi SSE 23.0 mph 33.4 mph N/A   Clear
11:55 AM 55.4 °F - 24.8 °F 31% 29.94 in 10.0 mi SSE 24.2 mph 33.4 mph N/A   Clear
12:15 PM 55.4 °F - 24.8 °F 31% 29.92 in 10.0 mi SSE 24.2 mph 31.1 mph N/A   Clear
12:35 PM 55.4 °F - 24.8 °F 31% 29.91 in 10.0 mi SSE 25.3 mph 33.4 mph N/A   Clear
12:55 PM 55.4 °F - 24.8 °F 31% 29.90 in 10.0 mi SSE 21.9 mph 32.2 mph N/A   Clear
1:15 PM 55.4 °F - 24.8 °F 31% 29.89 in 10.0 mi SSE 18.4 mph 35.7 mph N/A   Clear
1:35 PM 55.4 °F - 26.6 °F 33% 29.87 in 10.0 mi SSE 20.7 mph 29.9 mph N/A   Clear
1:55 PM 55.4 °F - 26.6 °F 33% 29.86 in 10.0 mi SSE 20.7 mph 32.2 mph N/A   Clear
2:15 PM 55.4 °F - 26.6 °F 33% 29.86 in 10.0 mi SSE 21.9 mph 31.1 mph N/A   Clear
2:35 PM 55.4 °F - 26.6 °F 33% 29.86 in 10.0 mi SSE 23.0 mph 32.2 mph N/A   Clear
2:55 PM 55.4 °F - 26.6 °F 33% 29.86 in 10.0 mi SSE 19.6 mph 27.6 mph N/A   Clear
3:15 PM 55.4 °F - 28.4 °F 36% 29.85 in 10.0 mi SSE 18.4 mph 27.6 mph N/A   Clear
3:35 PM 55.4 °F - 28.4 °F 36% 29.85 in 10.0 mi SSE 23.0 mph 33.4 mph N/A   Clear
3:55 PM 53.6 °F - 28.4 °F 38% 29.86 in 10.0 mi SSE 17.3 mph 26.5 mph N/A   Clear
4:15 PM 53.6 °F - 30.2 °F 41% 29.85 in 10.0 mi SSE 17.3 mph 24.2 mph N/A   Clear
4:35 PM 53.6 °F - 30.2 °F 41% 29.85 in 10.0 mi SSE 13.8 mph 27.6 mph N/A   Clear
4:55 PM 53.6 °F - 28.4 °F 38% 29.84 in 10.0 mi SSE 16.1 mph 29.9 mph N/A   Clear
5:15 PM 51.8 °F - 30.2 °F 44% 29.83 in 10.0 mi SSE 18.4 mph 25.3 mph N/A   Clear
5:35 PM 51.8 °F - 30.2 °F 44% 29.82 in 10.0 mi SSE 16.1 mph 26.5 mph N/A   Clear
5:55 PM 51.8 °F - 32.0 °F 47% 29.81 in 10.0 mi SSE 17.3 mph 25.3 mph N/A   Clear
6:15 PM 51.8 °F - 32.0 °F 47% 29.82 in 10.0 mi SSE 18.4 mph 27.6 mph N/A   Clear
6:35 PM 50.0 °F - 33.8 °F 54% 29.82 in 10.0 mi SSE 16.1 mph 25.3 mph N/A   Clear
6:55 PM 50.0 °F - 33.8 °F 54% 29.83 in 10.0 mi SSE 15.0 mph 21.9 mph N/A   Clear
7:15 PM 50.0 °F - 33.8 °F 54% 29.84 in 10.0 mi SSE 13.8 mph 23.0 mph N/A   Clear
7:35 PM 50.0 °F - 33.8 °F 54% 29.85 in 10.0 mi SSE 12.7 mph 24.2 mph N/A   Clear
7:55 PM 50.0 °F - 33.8 °F 54% 29.85 in 10.0 mi SSE 13.8 mph 19.6 mph N/A   Clear
8:15 PM 50.0 °F - 35.6 °F 58% 29.86 in 10.0 mi SSE 12.7 mph 18.4 mph N/A   Clear
8:35 PM 51.8 °F - 35.6 °F 54% 29.86 in 10.0 mi SSE 11.5 mph 19.6 mph N/A   Clear
8:55 PM 51.8 °F - 35.6 °F 54% 29.86 in 10.0 mi SSE 15.0 mph 20.7 mph N/A   Clear
9:15 PM 51.8 °F - 35.6 °F 54% 29.86 in 10.0 mi SSE 13.8 mph 20.7 mph N/A   Clear
9:35 PM 51.8 °F - 35.6 °F 54% 29.86 in 10.0 mi SSE 16.1 mph 20.7 mph N/A   Clear
9:55 PM 51.8 °F - 35.6 °F 54% 29.86 in 10.0 mi SSE 11.5 mph 21.9 mph N/A   Clear
10:15 PM 51.8 °F - 35.6 °F 54% 29.86 in 10.0 mi SSE 10.4 mph 21.9 mph N/A   Clear
10:35 PM 51.8 °F - 35.6 °F 54% 29.85 in 10.0 mi SSE 12.7 mph 20.7 mph N/A   Clear
10:55 PM 51.8 °F - 35.6 °F 54% 29.86 in 10.0 mi SSE 12.7 mph 17.3 mph N/A   Clear